sensor_id;sensor_type;location;lat;lon;timestamp;pressure;altitude;pressure_sealevel;temperature;humidity
73016;BME280;61893;50.074;14.440;2024-03-23T00:52:39;97683.88;;;10.71;81.35
73016;BME280;61893;50.074;14.440;2024-03-23T00:55:05;97683.88;;;10.71;81.28
73016;BME280;61893;50.074;14.440;2024-03-23T00:57:32;97675.69;;;10.81;80.70
73016;BME280;61893;50.074;14.440;2024-03-23T00:59:57;97670.75;;;10.70;80.98
73016;BME280;61893;50.074;14.440;2024-03-23T01:02:23;97665.06;;;10.73;80.80
73016;BME280;61893;50.074;14.440;2024-03-23T01:04:55;97665.25;;;10.71;80.75
73016;BME280;61893;50.074;14.440;2024-03-23T01:07:23;97659.09;;;10.79;79.94
73016;BME280;61893;50.074;14.440;2024-03-23T01:09:52;97652.09;;;10.78;79.37
73016;BME280;61893;50.074;14.440;2024-03-23T01:12:18;97644.53;;;10.90;78.96
73016;BME280;61893;50.074;14.440;2024-03-23T01:14:53;97633.41;;;10.86;78.18
73016;BME280;61893;50.074;14.440;2024-03-23T01:17:32;97643.34;;;10.92;77.63
73016;BME280;61893;50.074;14.440;2024-03-23T01:20:15;97644.16;;;10.93;77.79
73016;BME280;61893;50.074;14.440;2024-03-23T01:22:44;97639.19;;;10.90;77.78
73016;BME280;61893;50.074;14.440;2024-03-23T01:25:12;97632.69;;;10.92;77.63
73016;BME280;61893;50.074;14.440;2024-03-23T01:27:38;97625.50;;;11.01;76.72
73016;BME280;61893;50.074;14.440;2024-03-23T01:30:21;97617.16;;;11.04;76.23
73016;BME280;61893;50.074;14.440;2024-03-23T01:33:02;97611.88;;;10.96;76.64
73016;BME280;61893;50.074;14.440;2024-03-23T01:35:29;97611.66;;;11.05;76.55
73016;BME280;61893;50.074;14.440;2024-03-23T01:38:00;97614.53;;;10.96;77.02
73016;BME280;61893;50.074;14.440;2024-03-23T01:40:29;97610.53;;;11.00;76.34
73016;BME280;61893;50.074;14.440;2024-03-23T01:43:05;97611.06;;;10.95;76.65
73016;BME280;61893;50.074;14.440;2024-03-23T01:45:51;97593.59;;;10.93;76.32
73016;BME280;61893;50.074;14.440;2024-03-23T01:48:38;97602.59;;;10.92;76.47
73016;BME280;61893;50.074;14.440;2024-03-23T01:51:06;97599.34;;;10.81;76.81
73016;BME280;61893;50.074;14.440;2024-03-23T01:53:35;97594.13;;;10.65;78.14
73016;BME280;61893;50.074;14.440;2024-03-23T01:56:02;97592.00;;;10.60;79.05
73016;BME280;61893;50.074;14.440;2024-03-23T01:58:28;97586.25;;;10.49;79.69
73016;BME280;61893;50.074;14.440;2024-03-23T02:00:54;97579.47;;;10.38;80.73
73016;BME280;61893;50.074;14.440;2024-03-23T02:03:27;97578.66;;;10.37;80.81
73016;BME280;61893;50.074;14.440;2024-03-23T02:05:54;97579.00;;;10.34;80.52
73016;BME280;61893;50.074;14.440;2024-03-23T02:08:24;97574.31;;;10.45;79.74
73016;BME280;61893;50.074;14.440;2024-03-23T02:11:02;97578.47;;;10.47;79.87
73016;BME280;61893;50.074;14.440;2024-03-23T02:13:49;97578.94;;;10.51;79.56
73016;BME280;61893;50.074;14.440;2024-03-23T02:16:23;97567.28;;;10.52;79.58
73016;BME280;61893;50.074;14.440;2024-03-23T02:18:55;97574.75;;;10.56;78.96
73016;BME280;61893;50.074;14.440;2024-03-23T02:21:21;97561.78;;;10.53;79.07
73016;BME280;61893;50.074;14.440;2024-03-23T02:23:47;97560.13;;;10.52;78.64
73016;BME280;61893;50.074;14.440;2024-03-23T02:26:12;97550.59;;;10.58;78.30
73016;BME280;61893;50.074;14.440;2024-03-23T02:28:39;97545.88;;;10.45;79.23
73016;BME280;61893;50.074;14.440;2024-03-23T02:31:05;97554.22;;;10.42;79.29
73016;BME280;61893;50.074;14.440;2024-03-23T02:33:31;97544.91;;;10.38;79.43
73016;BME280;61893;50.074;14.440;2024-03-23T02:35:58;97535.66;;;10.26;80.27
73016;BME280;61893;50.074;14.440;2024-03-23T02:38:24;97532.53;;;10.30;79.34
73016;BME280;61893;50.074;14.440;2024-03-23T02:40:50;97535.53;;;10.27;79.83
73016;BME280;61893;50.074;14.440;2024-03-23T02:43:21;97521.69;;;10.24;80.53
73016;BME280;61893;50.074;14.440;2024-03-23T02:45:47;97513.09;;;10.22;80.00
73016;BME280;61893;50.074;14.440;2024-03-23T02:48:13;97508.75;;;10.21;79.82
73016;BME280;61893;50.074;14.440;2024-03-23T02:50:38;97506.91;;;10.29;79.22
73016;BME280;61893;50.074;14.440;2024-03-23T02:53:05;97512.22;;;10.29;78.98
73016;BME280;61893;50.074;14.440;2024-03-23T02:55:30;97505.59;;;10.25;79.02
73016;BME280;61893;50.074;14.440;2024-03-23T02:58:03;97504.56;;;10.26;78.64
73016;BME280;61893;50.074;14.440;2024-03-23T03:00:29;97500.97;;;10.19;79.05
73016;BME280;61893;50.074;14.440;2024-03-23T03:02:59;97507.16;;;10.11;79.46
73016;BME280;61893;50.074;14.440;2024-03-23T03:05:24;97499.34;;;10.10;79.66
73016;BME280;61893;50.074;14.440;2024-03-23T03:07:50;97497.38;;;10.04;79.22
73016;BME280;61893;50.074;14.440;2024-03-23T03:10:16;97480.47;;;10.05;79.32
73016;BME280;61893;50.074;14.440;2024-03-23T03:12:42;97480.50;;;9.97;79.35
73016;BME280;61893;50.074;14.440;2024-03-23T03:15:08;97469.88;;;9.97;78.61
73016;BME280;61893;50.074;14.440;2024-03-23T03:17:35;97475.84;;;9.99;78.76
73016;BME280;61893;50.074;14.440;2024-03-23T03:20:04;97469.06;;;9.96;78.91
73016;BME280;61893;50.074;14.440;2024-03-23T03:22:33;97467.03;;;9.98;78.31
73016;BME280;61893;50.074;14.440;2024-03-23T03:25:04;97472.22;;;9.91;78.11
73016;BME280;61893;50.074;14.440;2024-03-23T03:27:33;97466.75;;;9.93;78.10
73016;BME280;61893;50.074;14.440;2024-03-23T03:30:16;97463.06;;;9.94;78.17
73016;BME280;61893;50.074;14.440;2024-03-23T03:32:42;97459.78;;;9.84;78.55
73016;BME280;61893;50.074;14.440;2024-03-23T03:35:09;97451.69;;;9.77;79.12
73016;BME280;61893;50.074;14.440;2024-03-23T03:37:46;97450.19;;;9.83;78.32
73016;BME280;61893;50.074;14.440;2024-03-23T03:40:12;97446.38;;;9.77;78.98
73016;BME280;61893;50.074;14.440;2024-03-23T03:42:41;97446.38;;;9.77;78.58
73016;BME280;61893;50.074;14.440;2024-03-23T03:45:07;97440.25;;;9.77;78.44
73016;BME280;61893;50.074;14.440;2024-03-23T03:47:37;97437.63;;;9.68;78.85
73016;BME280;61893;50.074;14.440;2024-03-23T03:50:04;97424.22;;;9.62;79.22
73016;BME280;61893;50.074;14.440;2024-03-23T03:52:30;97428.53;;;9.63;78.84
73016;BME280;61893;50.074;14.440;2024-03-23T03:55:19;97429.88;;;9.59;78.63
73016;BME280;61893;50.074;14.440;2024-03-23T03:57:47;97419.56;;;9.64;78.22
73016;BME280;61893;50.074;14.440;2024-03-23T04:00:13;97419.88;;;9.69;77.78
73016;BME280;61893;50.074;14.440;2024-03-23T04:02:40;97415.56;;;9.68;77.54
73016;BME280;61893;50.074;14.440;2024-03-23T04:05:06;97417.75;;;9.64;77.90
73016;BME280;61893;50.074;14.440;2024-03-23T04:07:34;97423.38;;;9.61;77.87
73016;BME280;61893;50.074;14.440;2024-03-23T04:09:59;97423.22;;;9.63;77.60
73016;BME280;61893;50.074;14.440;2024-03-23T04:12:25;97425.72;;;9.64;77.51
73016;BME280;61893;50.074;14.440;2024-03-23T04:14:51;97418.88;;;9.70;77.22
73016;BME280;61893;50.074;14.440;2024-03-23T04:17:20;97423.16;;;9.79;76.90
73016;BME280;61893;50.074;14.440;2024-03-23T04:19:46;97410.81;;;9.86;76.24
73016;BME280;61893;50.074;14.440;2024-03-23T04:22:30;97410.75;;;9.95;76.34
73016;BME280;61893;50.074;14.440;2024-03-23T04:25:15;97395.47;;;9.97;75.75
73016;BME280;61893;50.074;14.440;2024-03-23T04:27:40;97388.03;;;9.92;76.18
73016;BME280;61893;50.074;14.440;2024-03-23T04:30:08;97392.03;;;9.88;76.09
73016;BME280;61893;50.074;14.440;2024-03-23T04:32:38;97393.34;;;9.92;76.54
73016;BME280;61893;50.074;14.440;2024-03-23T04:35:06;97395.06;;;9.85;76.76
73016;BME280;61893;50.074;14.440;2024-03-23T04:37:35;97396.38;;;9.81;76.87
73016;BME280;61893;50.074;14.440;2024-03-23T04:40:08;97391.97;;;9.73;77.44
73016;BME280;61893;50.074;14.440;2024-03-23T04:42:42;97384.19;;;9.63;77.70
73016;BME280;61893;50.074;14.440;2024-03-23T04:45:08;97375.56;;;9.61;78.13
73016;BME280;61893;50.074;14.440;2024-03-23T04:47:34;97376.28;;;9.55;78.20
73016;BME280;61893;50.074;14.440;2024-03-23T04:50:02;97383.81;;;9.43;79.02
73016;BME280;61893;50.074;14.440;2024-03-23T04:52:28;97377.00;;;9.41;79.27
73016;BME280;61893;50.074;14.440;2024-03-23T04:54:55;97378.06;;;9.32;80.08
73016;BME280;61893;50.074;14.440;2024-03-23T04:57:28;97366.97;;;9.28;79.99
73016;BME280;61893;50.074;14.440;2024-03-23T05:00:00;97368.47;;;9.22;80.34
73016;BME280;61893;50.074;14.440;2024-03-23T05:02:40;97368.50;;;9.14;80.62
73016;BME280;61893;50.074;14.440;2024-03-23T05:05:21;97365.69;;;9.16;80.94
73016;BME280;61893;50.074;14.440;2024-03-23T05:07:47;97363.03;;;9.16;81.21
73016;BME280;61893;50.074;14.440;2024-03-23T05:10:13;97360.19;;;9.17;81.35
73016;BME280;61893;50.074;14.440;2024-03-23T05:12:39;97350.91;;;9.21;80.91
73016;BME280;61893;50.074;14.440;2024-03-23T05:15:06;97342.59;;;9.24;80.63
73016;BME280;61893;50.074;14.440;2024-03-23T05:17:33;97341.75;;;9.24;81.05
73016;BME280;61893;50.074;14.440;2024-03-23T05:19:59;97335.94;;;9.29;80.84
73016;BME280;61893;50.074;14.440;2024-03-23T05:22:26;97345.00;;;9.42;80.17
73016;BME280;61893;50.074;14.440;2024-03-23T05:25:02;97333.84;;;9.47;79.78
73016;BME280;61893;50.074;14.440;2024-03-23T05:27:32;97333.31;;;9.52;79.37
73016;BME280;61893;50.074;14.440;2024-03-23T05:29:58;97329.81;;;9.59;78.90
73016;BME280;61893;50.074;14.440;2024-03-23T05:32:24;97321.28;;;9.64;78.79
73016;BME280;61893;50.074;14.440;2024-03-23T05:34:54;97325.06;;;9.69;78.30
73016;BME280;61893;50.074;14.440;2024-03-23T05:37:23;97316.75;;;9.73;78.46
73016;BME280;61893;50.074;14.440;2024-03-23T05:39:51;97323.03;;;9.80;77.71
73016;BME280;61893;50.074;14.440;2024-03-23T05:42:18;97315.88;;;9.80;77.92
73016;BME280;61893;50.074;14.440;2024-03-23T05:44:44;97309.03;;;9.86;77.49
73016;BME280;61893;50.074;14.440;2024-03-23T05:47:18;97295.75;;;9.86;77.67
73016;BME280;61893;50.074;14.440;2024-03-23T05:49:46;97296.91;;;9.83;77.99
73016;BME280;61893;50.074;14.440;2024-03-23T05:52:13;97289.59;;;9.85;77.94
73016;BME280;61893;50.074;14.440;2024-03-23T05:54:39;97294.56;;;9.88;77.70
73016;BME280;61893;50.074;14.440;2024-03-23T05:57:05;97288.22;;;9.89;77.47
73016;BME280;61893;50.074;14.440;2024-03-23T05:59:33;97287.06;;;9.92;77.51
73016;BME280;61893;50.074;14.440;2024-03-23T06:01:59;97289.66;;;10.00;77.43
73016;BME280;61893;50.074;14.440;2024-03-23T06:04:25;97281.88;;;9.99;77.45
73016;BME280;61893;50.074;14.440;2024-03-23T06:07:05;97272.59;;;9.95;77.55
73016;BME280;61893;50.074;14.440;2024-03-23T06:09:55;97271.25;;;10.13;76.81
73016;BME280;61893;50.074;14.440;2024-03-23T06:12:27;97274.38;;;10.17;77.01
73016;BME280;61893;50.074;14.440;2024-03-23T06:14:53;97274.03;;;10.20;76.69
73016;BME280;61893;50.074;14.440;2024-03-23T06:17:19;97259.66;;;10.29;76.09
73016;BME280;61893;50.074;14.440;2024-03-23T06:19:45;97254.22;;;10.23;76.79
73016;BME280;61893;50.074;14.440;2024-03-23T06:22:30;97260.91;;;10.19;76.98
73016;BME280;61893;50.074;14.440;2024-03-23T06:24:56;97257.34;;;10.26;77.00
73016;BME280;61893;50.074;14.440;2024-03-23T06:27:21;97258.34;;;10.25;76.83
73016;BME280;61893;50.074;14.440;2024-03-23T06:29:47;97243.09;;;10.27;77.00
73016;BME280;61893;50.074;14.440;2024-03-23T06:32:15;97248.28;;;10.35;76.37
73016;BME280;61893;50.074;14.440;2024-03-23T06:34:42;97234.38;;;10.48;76.00
73016;BME280;61893;50.074;14.440;2024-03-23T06:37:16;97223.09;;;10.61;75.37
73016;BME280;61893;50.074;14.440;2024-03-23T06:39:51;97224.09;;;10.60;75.58
73016;BME280;61893;50.074;14.440;2024-03-23T06:42:16;97215.81;;;10.70;74.95
73016;BME280;61893;50.074;14.440;2024-03-23T06:44:56;97218.66;;;10.83;74.44
73016;BME280;61893;50.074;14.440;2024-03-23T06:47:27;97210.50;;;11.21;72.83
73016;BME280;61893;50.074;14.440;2024-03-23T06:50:06;97202.44;;;11.36;71.69
73016;BME280;61893;50.074;14.440;2024-03-23T06:52:32;97202.66;;;12.33;67.93
73016;BME280;61893;50.074;14.440;2024-03-23T06:54:58;97192.88;;;12.47;67.77
73016;BME280;61893;50.074;14.440;2024-03-23T06:57:24;97199.84;;;14.17;61.34
73016;BME280;61893;50.074;14.440;2024-03-23T06:59:54;97189.31;;;15.01;57.83
73016;BME280;61893;50.074;14.440;2024-03-23T07:02:19;97176.09;;;15.06;56.97
73016;BME280;61893;50.074;14.440;2024-03-23T07:05:03;97182.47;;;15.05;57.17
73016;BME280;61893;50.074;14.440;2024-03-23T07:07:53;97175.56;;;14.06;60.75
73016;BME280;61893;50.074;14.440;2024-03-23T07:11:20;97176.81;;;15.26;56.94
73016;BME280;61893;50.074;14.440;2024-03-23T07:15:06;97163.22;;;14.05;60.42
73016;BME280;61893;50.074;14.440;2024-03-23T07:18:19;97166.94;;;13.37;63.88
73016;BME280;61893;50.074;14.440;2024-03-23T07:21:11;97148.34;;;13.09;64.95
73016;BME280;61893;50.074;14.440;2024-03-23T07:24:32;97149.19;;;13.16;64.96
73016;BME280;61893;50.074;14.440;2024-03-23T07:28:26;97124.56;;;14.01;62.75
73016;BME280;61893;50.074;14.440;2024-03-23T07:31:17;97128.25;;;13.93;61.61
73016;BME280;61893;50.074;14.440;2024-03-23T07:34:23;97121.81;;;15.81;55.22
73016;BME280;61893;50.074;14.440;2024-03-23T07:37:13;97126.41;;;17.21;50.94
73016;BME280;61893;50.074;14.440;2024-03-23T07:40:18;97122.75;;;17.15;50.47
73016;BME280;61893;50.074;14.440;2024-03-23T07:43:26;97120.19;;;16.90;51.15
73016;BME280;61893;50.074;14.440;2024-03-23T07:46:36;97115.78;;;17.91;48.59
73016;BME280;61893;50.074;14.440;2024-03-23T07:49:36;97115.97;;;17.54;49.27
73016;BME280;61893;50.074;14.440;2024-03-23T07:53:17;97095.44;;;19.00;45.20
73016;BME280;61893;50.074;14.440;2024-03-23T07:56:33;97089.19;;;19.28;45.38
73016;BME280;61893;50.074;14.440;2024-03-23T07:59:26;97086.09;;;20.20;42.06
73016;BME280;61893;50.074;14.440;2024-03-23T08:02:19;97077.19;;;20.64;40.96
73016;BME280;61893;50.074;14.440;2024-03-23T08:05:03;97082.75;;;21.01;40.29
73016;BME280;61893;50.074;14.440;2024-03-23T08:07:44;97095.75;;;21.04;39.51
73016;BME280;61893;50.074;14.440;2024-03-23T08:10:51;97086.19;;;20.69;40.13
73016;BME280;61893;50.074;14.440;2024-03-23T08:13:42;97086.63;;;21.10;39.59
73016;BME280;61893;50.074;14.440;2024-03-23T08:16:32;97078.25;;;20.02;41.13
73016;BME280;61893;50.074;14.440;2024-03-23T08:20:05;97073.41;;;20.21;41.27
73016;BME280;61893;50.074;14.440;2024-03-23T08:22:35;97073.41;;;20.21;41.76
73016;BME280;61893;50.074;14.440;2024-03-23T08:25:01;97070.44;;;20.22;41.18
73016;BME280;61893;50.074;14.440;2024-03-23T08:27:28;97072.59;;;20.86;39.90
73016;BME280;61893;50.074;14.440;2024-03-23T08:29:54;97054.81;;;21.87;38.08
73016;BME280;61893;50.074;14.440;2024-03-23T08:32:20;97063.88;;;21.06;39.57
73016;BME280;61893;50.074;14.440;2024-03-23T08:37:17;97061.16;;;21.66;38.73
73016;BME280;61893;50.074;14.440;2024-03-23T08:39:44;97050.00;;;19.71;42.30
73016;BME280;61893;50.074;14.440;2024-03-23T08:42:10;97047.25;;;19.03;44.84
73016;BME280;61893;50.074;14.440;2024-03-23T08:44:36;97040.19;;;17.93;47.01
73016;BME280;61893;50.074;14.440;2024-03-23T08:47:02;97049.41;;;19.52;43.52
73016;BME280;61893;50.074;14.440;2024-03-23T08:49:54;97044.03;;;18.61;45.02
73016;BME280;61893;50.074;14.440;2024-03-23T08:53:15;97028.69;;;18.21;45.88
73016;BME280;61893;50.074;14.440;2024-03-23T08:56:17;97031.53;;;17.79;46.74
73016;BME280;61893;50.074;14.440;2024-03-23T08:59:16;97036.78;;;17.74;46.87
73016;BME280;61893;50.074;14.440;2024-03-23T09:02:13;97029.28;;;17.29;48.07
73016;BME280;61893;50.074;14.440;2024-03-23T09:04:57;97027.00;;;17.02;48.56
73016;BME280;61893;50.074;14.440;2024-03-23T09:08:15;97031.09;;;17.05;48.92
73016;BME280;61893;50.074;14.440;2024-03-23T09:10:56;97028.81;;;16.78;49.19
73016;BME280;61893;50.074;14.440;2024-03-23T09:14:02;97049.53;;;16.41;48.62
73016;BME280;61893;50.074;14.440;2024-03-23T09:16:51;97067.78;;;15.77;50.24
73016;BME280;61893;50.074;14.440;2024-03-23T09:19:30;97055.34;;;15.32;51.54
73016;BME280;61893;50.074;14.440;2024-03-23T09:22:04;97060.56;;;14.96;53.41
73016;BME280;61893;50.074;14.440;2024-03-23T09:25:04;97075.50;;;14.78;54.70
73016;BME280;61893;50.074;14.440;2024-03-23T09:29:00;97078.09;;;14.53;55.90
73016;BME280;61893;50.074;14.440;2024-03-23T09:32:43;97089.31;;;14.24;58.50
73016;BME280;61893;50.074;14.440;2024-03-23T09:35:31;97092.31;;;13.69;63.79
73016;BME280;61893;50.074;14.440;2024-03-23T09:38:32;97077.50;;;13.66;64.85
73016;BME280;61893;50.074;14.440;2024-03-23T09:42:00;97078.38;;;13.34;66.66
73016;BME280;61893;50.074;14.440;2024-03-23T09:45:27;97069.91;;;13.30;68.23
73016;BME280;61893;50.074;14.440;2024-03-23T09:48:17;97088.97;;;13.00;70.21
73016;BME280;61893;50.074;14.440;2024-03-23T09:51:07;97088.78;;;13.08;69.95
73016;BME280;61893;50.074;14.440;2024-03-23T09:54:17;97078.88;;;12.96;70.49
73016;BME280;61893;50.074;14.440;2024-03-23T09:57:52;97097.75;;;12.74;71.93
73016;BME280;61893;50.074;14.440;2024-03-23T10:01:36;97101.75;;;12.44;73.17
73016;BME280;61893;50.074;14.440;2024-03-23T10:04:44;97125.91;;;12.29;73.41
73016;BME280;61893;50.074;14.440;2024-03-23T10:07:40;97128.34;;;12.30;74.03
73016;BME280;61893;50.074;14.440;2024-03-23T10:10:32;97132.69;;;12.38;72.56
73016;BME280;61893;50.074;14.440;2024-03-23T10:13:39;97138.59;;;12.27;72.28
73016;BME280;61893;50.074;14.440;2024-03-23T10:16:31;97145.78;;;12.26;72.53
73016;BME280;61893;50.074;14.440;2024-03-23T10:19:12;97140.81;;;12.16;72.09
73016;BME280;61893;50.074;14.440;2024-03-23T10:21:55;97135.69;;;12.22;72.28
73016;BME280;61893;50.074;14.440;2024-03-23T10:24:36;97140.28;;;12.00;73.58
73016;BME280;61893;50.074;14.440;2024-03-23T10:27:05;97150.69;;;12.23;73.73
73016;BME280;61893;50.074;14.440;2024-03-23T10:30:30;97161.75;;;12.20;72.47
73016;BME280;61893;50.074;14.440;2024-03-23T10:33:14;97158.81;;;12.08;72.38
73016;BME280;61893;50.074;14.440;2024-03-23T10:35:55;97175.81;;;12.07;71.92
73016;BME280;61893;50.074;14.440;2024-03-23T10:38:33;97178.84;;;12.04;72.35
73016;BME280;61893;50.074;14.440;2024-03-23T10:41:02;97173.03;;;12.22;72.34
73016;BME280;61893;50.074;14.440;2024-03-23T10:44:22;97179.78;;;12.17;71.78
73016;BME280;61893;50.074;14.440;2024-03-23T10:47:23;97182.81;;;12.43;70.98
73016;BME280;61893;50.074;14.440;2024-03-23T10:50:39;97182.97;;;12.34;71.04
73016;BME280;61893;50.074;14.440;2024-03-23T10:53:46;97199.53;;;12.30;71.25
73016;BME280;61893;50.074;14.440;2024-03-23T10:57:09;97161.78;;;12.26;71.51
73016;BME280;61893;50.074;14.440;2024-03-23T11:00:17;97168.41;;;12.37;70.70
73016;BME280;61893;50.074;14.440;2024-03-23T11:03:41;97168.81;;;12.34;70.43
73016;BME280;61893;50.074;14.440;2024-03-23T11:08:55;97172.84;;;12.65;68.91
73016;BME280;61893;50.074;14.440;2024-03-23T11:11:26;97171.03;;;12.78;68.05
73016;BME280;61893;50.074;14.440;2024-03-23T11:13:53;97173.78;;;12.98;66.69
73016;BME280;61893;50.074;14.440;2024-03-23T11:16:27;97163.34;;;13.03;66.14
73016;BME280;61893;50.074;14.440;2024-03-23T11:19:34;97158.81;;;12.97;66.49
73016;BME280;61893;50.074;14.440;2024-03-23T11:22:07;97160.44;;;12.98;65.64
73016;BME280;61893;50.074;14.440;2024-03-23T11:24:39;97160.88;;;13.08;64.01
73016;BME280;61893;50.074;14.440;2024-03-23T11:27:16;97152.50;;;13.25;62.92
73016;BME280;61893;50.074;14.440;2024-03-23T11:29:42;97158.09;;;13.43;61.27
73016;BME280;61893;50.074;14.440;2024-03-23T11:32:09;97163.44;;;13.50;60.67
73016;BME280;61893;50.074;14.440;2024-03-23T11:34:36;97167.16;;;13.69;59.23
73016;BME280;61893;50.074;14.440;2024-03-23T11:37:04;97169.16;;;14.13;57.53
73016;BME280;61893;50.074;14.440;2024-03-23T11:39:32;97170.00;;;14.07;57.29
73016;BME280;61893;50.074;14.440;2024-03-23T11:42:03;97160.94;;;14.15;55.96
73016;BME280;61893;50.074;14.440;2024-03-23T11:44:30;97160.66;;;14.50;54.13
73016;BME280;61893;50.074;14.440;2024-03-23T11:47:18;97176.63;;;14.76;49.56
73016;BME280;61893;50.074;14.440;2024-03-23T11:49:51;97163.44;;;13.96;55.79
73016;BME280;61893;50.074;14.440;2024-03-23T11:53:11;97207.69;;;12.98;59.60
73016;BME280;61893;50.074;14.440;2024-03-23T11:56:13;97222.84;;;12.91;59.73
73016;BME280;61893;50.074;14.440;2024-03-23T11:59:04;97231.84;;;12.83;58.31
73016;BME280;61893;50.074;14.440;2024-03-23T12:02:11;97222.13;;;12.69;56.30
73016;BME280;61893;50.074;14.440;2024-03-23T12:04:55;97248.94;;;12.19;56.52
73016;BME280;61893;50.074;14.440;2024-03-23T12:07:33;97243.81;;;11.75;56.99
73016;BME280;61893;50.074;14.440;2024-03-23T12:10:07;97257.28;;;11.30;58.65
73016;BME280;61893;50.074;14.440;2024-03-23T12:12:33;97280.31;;;11.38;58.81
73016;BME280;61893;50.074;14.440;2024-03-23T12:15:06;97293.84;;;11.21;57.91
73016;BME280;61893;50.074;14.440;2024-03-23T12:17:34;97280.00;;;11.11;57.29
73016;BME280;61893;50.074;14.440;2024-03-23T12:20:02;97283.19;;;11.21;57.21
73016;BME280;61893;50.074;14.440;2024-03-23T12:22:34;97279.44;;;11.52;56.03
73016;BME280;61893;50.074;14.440;2024-03-23T12:25:02;97288.47;;;11.72;55.47
73016;BME280;61893;50.074;14.440;2024-03-23T12:28:07;97288.91;;;11.55;54.02
73016;BME280;61893;50.074;14.440;2024-03-23T12:30:57;97297.06;;;11.53;52.87
73016;BME280;61893;50.074;14.440;2024-03-23T12:34:02;97306.13;;;11.37;53.16
73016;BME280;61893;50.074;14.440;2024-03-23T12:39:40;97314.94;;;11.38;52.46
73016;BME280;61893;50.074;14.440;2024-03-23T12:42:21;97323.31;;;11.35;52.27
73016;BME280;61893;50.074;14.440;2024-03-23T12:44:47;97318.19;;;11.33;52.52
73016;BME280;61893;50.074;14.440;2024-03-23T12:47:14;97343.84;;;11.41;51.44
73016;BME280;61893;50.074;14.440;2024-03-23T12:49:52;97347.06;;;11.51;50.43
73016;BME280;61893;50.074;14.440;2024-03-23T12:52:19;97379.28;;;11.56;50.20
73016;BME280;61893;50.074;14.440;2024-03-23T12:54:49;97400.94;;;11.53;50.74
73016;BME280;61893;50.074;14.440;2024-03-23T12:57:15;97408.16;;;11.38;50.92
73016;BME280;61893;50.074;14.440;2024-03-23T12:59:42;97411.09;;;11.28;49.96
73016;BME280;61893;50.074;14.440;2024-03-23T13:02:08;97437.16;;;11.18;50.23
73016;BME280;61893;50.074;14.440;2024-03-23T13:04:51;97433.97;;;11.08;50.18
73016;BME280;61893;50.074;14.440;2024-03-23T13:07:20;97436.88;;;10.98;50.15
73016;BME280;61893;50.074;14.440;2024-03-23T13:09:52;97453.13;;;11.03;50.26
73016;BME280;61893;50.074;14.440;2024-03-23T13:12:19;97448.69;;;10.95;50.39
73016;BME280;61893;50.074;14.440;2024-03-23T13:14:48;97464.59;;;11.03;49.23
73016;BME280;61893;50.074;14.440;2024-03-23T13:17:17;97472.13;;;11.00;49.50
73016;BME280;61893;50.074;14.440;2024-03-23T13:20:24;97469.72;;;10.90;49.92
73016;BME280;61893;50.074;14.440;2024-03-23T13:23:10;97442.66;;;11.01;49.59
73016;BME280;61893;50.074;14.440;2024-03-23T13:26:29;97478.56;;;11.20;49.54
73016;BME280;61893;50.074;14.440;2024-03-23T13:29:35;97483.25;;;11.18;49.12
73016;BME280;61893;50.074;14.440;2024-03-23T13:33:30;97465.53;;;11.55;48.30
73016;BME280;61893;50.074;14.440;2024-03-23T13:37:02;97459.75;;;11.66;47.27
73016;BME280;61893;50.074;14.440;2024-03-23T13:40:11;97466.19;;;11.57;47.52
73016;BME280;61893;50.074;14.440;2024-03-23T13:43:41;97478.31;;;11.45;47.39
73016;BME280;61893;50.074;14.440;2024-03-23T13:46:28;97479.22;;;11.22;47.86
73016;BME280;61893;50.074;14.440;2024-03-23T13:49:27;97485.91;;;11.18;47.61
73016;BME280;61893;50.074;14.440;2024-03-23T13:52:31;97520.50;;;11.03;48.07
73016;BME280;61893;50.074;14.440;2024-03-23T13:55:15;97536.75;;;11.09;48.02
73016;BME280;61893;50.074;14.440;2024-03-23T13:57:58;97521.31;;;11.04;48.14
73016;BME280;61893;50.074;14.440;2024-03-23T14:00:37;97517.16;;;10.87;48.87
73016;BME280;61893;50.074;14.440;2024-03-23T14:04:12;97527.38;;;10.52;49.63
73016;BME280;61893;50.074;14.440;2024-03-23T14:07:06;97517.00;;;10.65;49.92
73016;BME280;61893;50.074;14.440;2024-03-23T14:10:04;97513.31;;;10.66;49.67
73016;BME280;61893;50.074;14.440;2024-03-23T14:13:38;97517.00;;;10.42;49.90
73016;BME280;61893;50.074;14.440;2024-03-23T14:16:49;97530.03;;;10.52;50.03
73016;BME280;61893;50.074;14.440;2024-03-23T14:19:44;97515.91;;;10.28;50.53
73016;BME280;61893;50.074;14.440;2024-03-23T14:23:01;97515.00;;;10.05;51.28
73016;BME280;61893;50.074;14.440;2024-03-23T14:25:49;97534.00;;;10.25;51.57
73016;BME280;61893;50.074;14.440;2024-03-23T14:29:06;97545.97;;;10.29;51.25
73016;BME280;61893;50.074;14.440;2024-03-23T14:32:22;97537.75;;;10.07;52.67
73016;BME280;61893;50.074;14.440;2024-03-23T14:35:26;97527.78;;;10.01;52.74
73016;BME280;61893;50.074;14.440;2024-03-23T14:38:41;97540.44;;;9.99;52.66
73016;BME280;61893;50.074;14.440;2024-03-23T14:42:01;97540.28;;;9.92;52.79
73016;BME280;61893;50.074;14.440;2024-03-23T14:44:50;97571.22;;;9.85;52.79
73016;BME280;61893;50.074;14.440;2024-03-23T14:48:06;97564.13;;;9.69;52.43
73016;BME280;61893;50.074;14.440;2024-03-23T14:50:46;97567.81;;;9.60;52.86
73016;BME280;61893;50.074;14.440;2024-03-23T14:53:51;97582.91;;;9.60;52.92
73016;BME280;61893;50.074;14.440;2024-03-23T14:56:58;97577.47;;;9.37;53.83
73016;BME280;61893;50.074;14.440;2024-03-23T14:59:35;97573.34;;;9.26;55.07
73016;BME280;61893;50.074;14.440;2024-03-23T15:02:17;97571.03;;;9.23;54.98
73016;BME280;61893;50.074;14.440;2024-03-23T15:05:18;97570.69;;;9.26;54.50
73016;BME280;61893;50.074;14.440;2024-03-23T15:08:10;97575.16;;;9.17;54.30
73016;BME280;61893;50.074;14.440;2024-03-23T15:10:54;97573.34;;;9.10;54.09